Time;durP1;ratioP1;P1;durP2;ratioP2;P2;SDS_P1;SDS_P2;PMS_P1;PMS_P2;Temp;Humidity;BMP_temperature;BMP_pressure;BME280_temperature;BME280_humidity;BME280_pressure;Samples;Min_cycle;Max_cycle;Signal;HPM_P1;HPM_P2
2022/06/15 00:00:44;;;;;;;4.50;2.90;;;;;;;18.08;56.89;98184.91;5033663;28;20673;-69
2022/06/15 00:03:11;;;;;;;4.07;3.20;;;;;;;18.06;57.47;98180.84;5033947;28;20237;-69
2022/06/15 00:05:38;;;;;;;4.70;3.00;;;;;;;18.01;57.08;98186.22;5033417;28;20657;-69
2022/06/15 00:08:06;;;;;;;5.83;3.20;;;;;;;17.91;58.20;98184.28;5033766;28;20230;-69
2022/06/15 00:10:34;;;;;;;4.63;3.07;;;;;;;17.85;58.02;98177.25;5033820;28;20213;-69
2022/06/15 00:13:00;;;;;;;4.40;3.20;;;;;;;17.83;58.31;98181.28;5033438;28;20202;-69
2022/06/15 00:15:26;;;;;;;5.07;3.40;;;;;;;17.77;58.33;98185.00;5034536;28;20392;-69
2022/06/15 00:17:53;;;;;;;10.17;3.53;;;;;;;17.73;59.11;98176.66;5033677;28;20313;-70
2022/06/15 00:20:19;;;;;;;3.43;3.13;;;;;;;17.69;59.06;98178.25;5033705;28;20216;-69
2022/06/15 00:22:46;;;;;;;4.80;3.20;;;;;;;17.61;59.34;98180.63;5033689;28;20297;-69
2022/06/15 00:25:13;;;;;;;3.50;3.20;;;;;;;17.63;59.35;98186.53;5033625;28;20235;-69
2022/06/15 00:27:39;;;;;;;5.90;3.17;;;;;;;17.55;59.79;98176.31;5033567;28;20220;-69
2022/06/15 00:30:07;;;;;;;3.50;2.90;;;;;;;17.51;59.89;98176.00;5033502;28;20224;-69
2022/06/15 00:32:33;;;;;;;5.47;2.97;;;;;;;17.53;60.32;98183.81;5034088;28;20296;-69
2022/06/15 00:35:00;;;;;;;4.47;2.90;;;;;;;17.50;60.23;98181.66;5033081;28;20305;-69
2022/06/15 00:37:26;;;;;;;5.07;2.80;;;;;;;17.46;60.14;98183.25;5033480;28;20233;-69
2022/06/15 00:39:52;;;;;;;3.57;2.80;;;;;;;17.39;60.73;98178.09;5033189;28;20209;-69
2022/06/15 00:42:20;;;;;;;3.97;3.10;;;;;;;17.41;61.01;98175.16;5033375;28;20202;-69
2022/06/15 00:44:49;;;;;;;5.27;3.17;;;;;;;17.44;60.08;98179.97;5033321;28;20230;-69
2022/06/15 00:47:38;;;;;;;5.47;3.27;;;;;;;17.29;61.45;98169.91;5033453;28;20279;-69
2022/06/15 00:50:10;;;;;;;3.90;2.90;;;;;;;17.25;60.91;98171.50;5033095;28;20210;-69
2022/06/15 00:52:51;;;;;;;4.30;3.10;;;;;;;17.19;61.03;98155.63;5033028;28;20187;-69
2022/06/15 00:55:25;;;;;;;5.60;3.20;;;;;;;17.12;62.15;98150.47;5017373;28;20186;-69
2022/06/15 00:57:51;;;;;;;4.60;3.03;;;;;;;17.08;61.97;98160.09;5015816;28;20229;-69
2022/06/15 01:00:20;;;;;;;5.53;2.97;;;;;;;17.06;62.83;98156.84;5033286;28;20297;-69
2022/06/15 01:02:47;;;;;;;6.70;2.97;;;;;;;17.01;62.60;98148.75;5032920;28;20292;-70
2022/06/15 01:05:20;;;;;;;3.53;2.90;;;;;;;17.00;63.18;98149.81;5033085;28;20229;-69
2022/06/15 01:07:52;;;;;;;5.37;3.10;;;;;;;17.03;63.21;98146.63;5032853;28;20225;-69
2022/06/15 01:10:30;;;;;;;4.40;2.90;;;;;;;16.99;63.87;98145.53;5033240;28;20201;-69
2022/06/15 01:13:09;;;;;;;4.57;3.00;;;;;;;16.94;64.00;98140.13;5032912;28;20634;-69
2022/06/15 01:16:05;;;;;;;3.63;2.97;;;;;;;16.90;64.01;98128.28;5032932;28;20656;-69
2022/06/15 01:18:46;;;;;;;5.03;3.20;;;;;;;16.98;63.85;98132.34;5032705;28;20776;-69
2022/06/15 01:21:25;;;;;;;6.87;3.27;;;;;;;16.95;63.95;98125.63;5016638;28;20284;-69
2022/06/15 01:24:07;;;;;;;7.23;3.30;;;;;;;16.99;63.97;98129.41;5032861;28;20717;-69
2022/06/15 01:27:07;;;;;;;5.53;2.87;;;;;;;16.89;64.33;98126.66;5032736;28;20221;-68
2022/06/15 01:29:52;;;;;;;6.70;3.13;;;;;;;16.89;63.98;98123.97;5032934;28;20236;-69
2022/06/15 01:32:41;;;;;;;6.90;3.47;;;;;;;16.84;64.18;98126.63;5033038;28;20194;-69
2022/06/15 01:35:31;;;;;;;5.63;3.50;;;;;;;16.81;64.39;98132.50;5023322;28;20204;-69
2022/06/15 01:38:19;;;;;;;6.67;3.30;;;;;;;16.66;65.23;98124.31;5033340;28;20222;-69
2022/06/15 01:40:51;;;;;;;3.87;3.23;;;;;;;16.59;65.46;98123.72;5032517;28;20734;-69
2022/06/15 01:43:22;;;;;;;4.43;3.53;;;;;;;16.60;65.83;98121.84;5032549;28;20229;-69
2022/06/15 01:45:50;;;;;;;5.50;3.50;;;;;;;16.54;66.71;98126.34;5032482;28;20214;-69
2022/06/15 01:48:18;;;;;;;6.57;3.53;;;;;;;16.55;66.41;98127.19;5035781;28;20313;-69
2022/06/15 01:51:04;;;;;;;5.67;3.37;;;;;;;16.54;66.84;98123.69;5036780;28;20277;-69
2022/06/15 01:53:40;;;;;;;6.67;4.13;;;;;;;16.52;66.55;98127.69;5018403;28;20196;-69
2022/06/15 01:56:06;;;;;;;4.90;4.03;;;;;;;16.55;67.02;98124.50;5036168;28;20276;-69
2022/06/15 01:58:36;;;;;;;5.47;3.90;;;;;;;16.50;67.28;98122.56;5036007;28;20338;-69
2022/06/15 02:01:09;;;;;;;7.57;3.83;;;;;;;16.46;67.74;98124.13;5036592;28;20202;-69
2022/06/15 02:04:09;;;;;;;5.77;4.20;;;;;;;16.40;67.74;98124.34;5036013;28;20284;-69
2022/06/15 02:06:44;;;;;;;5.60;4.30;;;;;;;16.26;68.00;98126.59;5035896;28;20237;-69
2022/06/15 02:09:20;;;;;;;8.27;4.50;;;;;;;16.33;68.11;98119.13;5035812;28;20320;-69
2022/06/15 02:11:47;;;;;;;5.57;4.70;;;;;;;16.33;68.13;98119.13;5036040;28;20297;-69
2022/06/15 02:14:37;;;;;;;5.67;4.40;;;;;;;16.28;69.69;98121.78;5035945;28;20300;-69
2022/06/15 02:17:09;;;;;;;8.23;4.60;;;;;;;16.13;69.25;98118.94;5018118;28;20717;-69
2022/06/15 02:19:42;;;;;;;6.13;4.90;;;;;;;16.05;69.76;98116.72;5035516;28;20226;-69
2022/06/15 02:22:13;;;;;;;5.07;4.30;;;;;;;16.02;69.81;98121.78;5035906;28;20193;-69
2022/06/15 02:24:41;;;;;;;5.57;4.40;;;;;;;16.01;69.38;98122.84;5035455;28;20196;-69
2022/06/15 02:27:09;;;;;;;6.30;4.73;;;;;;;16.02;69.08;98130.59;5035703;28;20212;-69
2022/06/15 02:29:39;;;;;;;7.40;4.40;;;;;;;16.02;69.45;98122.56;5035484;28;20232;-69
2022/06/15 02:32:13;;;;;;;6.63;4.33;;;;;;;15.96;70.81;98123.56;5035794;28;20220;-69
2022/06/15 02:34:40;;;;;;;5.77;4.07;;;;;;;15.83;70.95;98118.59;5035495;28;20192;-69
2022/06/15 02:37:06;;;;;;;9.30;4.63;;;;;;;15.73;71.06;98117.66;5035319;28;20587;-69
2022/06/15 02:39:34;;;;;;;6.77;4.37;;;;;;;15.68;71.69;98122.97;5035326;28;20653;-69
2022/06/15 02:42:04;;;;;;;5.57;4.20;;;;;;;15.63;71.63;98121.03;5035346;28;20206;-69
2022/06/15 02:44:35;;;;;;;5.47;4.13;;;;;;;15.57;72.48;98116.69;5035245;28;20273;-69
2022/06/15 02:47:01;;;;;;;7.13;4.40;;;;;;;15.54;72.13;98113.69;5035200;28;20236;-69
2022/06/15 02:49:28;;;;;;;5.83;3.90;;;;;;;15.64;71.87;98108.44;5034864;28;20238;-69
2022/06/15 02:52:02;;;;;;;5.67;4.00;;;;;;;15.56;72.79;98120.41;5034930;28;20220;-69
2022/06/15 02:54:44;;;;;;;5.67;4.13;;;;;;;15.49;73.31;98118.97;5035258;28;20193;-69
2022/06/15 02:57:12;;;;;;;5.30;3.87;;;;;;;15.39;74.04;98118.84;5035211;28;20190;-69
2022/06/15 02:59:39;;;;;;;5.43;3.90;;;;;;;15.38;73.54;98109.19;5034488;28;20731;-69
2022/06/15 03:02:05;;;;;;;4.43;3.60;;;;;;;15.31;74.11;98111.19;5034588;28;20564;-69
2022/06/15 03:04:32;;;;;;;3.60;3.30;;;;;;;15.29;73.87;98113.34;5034593;28;20273;-69
2022/06/15 03:06:58;;;;;;;4.60;3.80;;;;;;;15.24;74.17;98113.25;5034874;28;20316;-69
2022/06/15 03:09:25;;;;;;;5.07;3.87;;;;;;;15.24;73.96;98115.94;5034883;28;20316;-69
2022/06/15 03:11:52;;;;;;;6.13;4.20;;;;;;;15.10;75.02;98118.13;5034590;28;20206;-69
2022/06/15 03:14:18;;;;;;;6.33;3.80;;;;;;;15.19;74.69;98123.91;5034385;28;20570;-69
2022/06/15 03:16:48;;;;;;;8.60;4.50;;;;;;;15.24;73.80;98124.75;5034578;28;20233;-70
2022/06/15 03:19:15;;;;;;;5.40;3.83;;;;;;;15.26;73.25;98114.63;5035082;28;20234;-69
2022/06/15 03:21:41;;;;;;;6.87;3.97;;;;;;;15.16;74.36;98113.69;5035162;28;20241;-69
2022/06/15 03:24:08;;;;;;;4.10;3.50;;;;;;;15.09;74.52;98113.03;5034222;28;20699;-69
2022/06/15 03:26:35;;;;;;;6.87;4.30;;;;;;;15.04;74.76;98116.44;5034116;28;20275;-69
2022/06/15 03:29:01;;;;;;;4.57;3.83;;;;;;;15.12;75.23;98113.38;5034048;28;20591;-69
2022/06/15 03:31:28;;;;;;;4.03;3.73;;;;;;;15.05;75.00;98111.88;5034136;28;20665;-69
2022/06/15 03:33:54;;;;;;;6.20;3.77;;;;;;;15.17;75.03;98112.63;5033779;28;20731;-69
2022/06/15 03:36:21;;;;;;;4.10;3.63;;;;;;;15.24;74.44;98110.59;5034063;28;20201;-69
2022/06/15 03:38:48;;;;;;;7.20;3.90;;;;;;;15.22;74.39;98113.50;5033981;28;20633;-69
2022/06/15 03:41:15;;;;;;;5.60;3.80;;;;;;;15.19;75.58;98111.31;5033846;28;20561;-69
2022/06/15 03:43:42;;;;;;;6.23;4.23;;;;;;;15.18;75.61;98109.69;5033944;28;20584;-69
2022/06/15 03:46:08;;;;;;;6.27;4.73;;;;;;;15.22;75.69;98105.47;5033816;28;20236;-69
2022/06/15 03:48:35;;;;;;;5.50;4.10;;;;;;;15.31;75.84;98103.16;5033732;28;20605;-69
2022/06/15 03:51:01;;;;;;;7.00;4.20;;;;;;;15.34;75.58;98106.19;5033795;28;20281;-69
2022/06/15 03:53:27;;;;;;;7.60;4.50;;;;;;;15.35;75.53;98113.19;5034030;28;20293;-69
2022/06/15 03:55:54;;;;;;;6.33;4.63;;;;;;;15.35;75.44;98110.50;5033643;28;20202;-69
2022/06/15 03:58:20;;;;;;;5.53;4.10;;;;;;;15.27;75.90;98108.22;5033820;28;20317;-69
2022/06/15 04:00:47;;;;;;;8.30;4.80;;;;;;;15.23;76.27;98101.72;5033848;28;20300;-69
2022/06/15 04:03:13;;;;;;;7.40;5.00;;;;;;;15.28;76.23;98107.16;5033607;28;20301;-69
2022/06/15 04:05:43;;;;;;;8.17;5.30;;;;;;;15.29;76.08;98105.28;5033417;28;20226;-68
2022/06/15 04:11:58;;;;;;;7.63;6.00;;;;;;;15.40;74.90;98104.38;5008935;28;20206;-68
2022/06/15 04:14:04;;;;;;;10.60;6.07;;;;;;;15.51;75.69;98104.28;5033292;28;20549;-68
2022/06/15 04:16:31;;;;;;;9.67;6.50;;;;;;;15.49;74.68;98106.41;5033316;28;20743;-68
2022/06/15 04:19:02;;;;;;;9.03;6.10;;;;;;;15.49;75.27;98109.09;5033445;28;20229;-68
2022/06/15 04:21:28;;;;;;;8.27;6.13;;;;;;;15.50;75.99;98109.88;5033092;28;20651;-68
2022/06/15 04:23:55;;;;;;;9.53;6.80;;;;;;;15.58;75.38;98110.28;5033045;28;20217;-68
2022/06/15 04:26:21;;;;;;;11.87;6.20;;;;;;;15.66;75.17;98111.69;5033029;28;20312;-68
2022/06/15 04:28:48;;;;;;;8.50;6.27;;;;;;;15.72;74.89;98116.06;5033081;28;20657;-69
2022/06/15 04:31:14;;;;;;;11.23;5.97;;;;;;;15.73;73.47;98115.81;5033600;28;20212;-68
2022/06/15 04:33:41;;;;;;;10.00;5.60;;;;;;;15.76;74.82;98122.53;5033212;28;20288;-68
2022/06/15 04:36:07;;;;;;;8.33;5.63;;;;;;;15.82;74.42;98124.22;5032833;28;20771;-68
2022/06/15 04:38:34;;;;;;;9.20;6.10;;;;;;;15.96;73.02;98128.94;5032604;28;20229;-68
2022/06/15 04:41:02;;;;;;;6.43;4.87;;;;;;;16.14;72.03;98130.47;5033660;28;20205;-69
2022/06/15 04:43:29;;;;;;;8.97;4.93;;;;;;;16.24;71.06;98138.66;5032874;28;20212;-69
2022/06/15 04:45:55;;;;;;;9.17;4.77;;;;;;;16.24;72.11;98131.38;5032289;28;20801;-68
2022/06/15 04:48:22;;;;;;;7.70;4.63;;;;;;;16.33;72.10;98129.88;5032558;28;20226;-69
2022/06/15 04:50:49;;;;;;;8.93;5.67;;;;;;;16.34;71.50;98131.50;5033048;28;20285;-69
2022/06/15 04:53:15;;;;;;;8.10;4.57;;;;;;;16.42;72.65;98130.28;5032532;28;20214;-69
2022/06/15 04:55:42;;;;;;;8.87;4.97;;;;;;;16.47;73.22;98133.78;5032628;28;20369;-69
2022/06/15 04:58:09;;;;;;;8.37;5.30;;;;;;;16.53;72.76;98130.13;5032670;28;20589;-68
2022/06/15 05:00:40;;;;;;;7.50;4.87;;;;;;;16.66;71.83;98131.56;5032753;28;20305;-68
2022/06/15 05:03:07;;;;;;;8.90;4.40;;;;;;;16.76;71.01;98134.31;5032749;28;20273;-68
2022/06/15 05:05:33;;;;;;;6.00;4.80;;;;;;;17.03;70.15;98137.75;5032665;28;20292;-69
2022/06/15 05:08:00;;;;;;;6.83;5.23;;;;;;;17.33;70.17;98135.28;5032768;28;20314;-69
2022/06/15 05:10:27;;;;;;;8.00;5.23;;;;;;;17.72;67.39;98139.28;5032561;28;20206;-68
2022/06/15 05:12:54;;;;;;;8.83;4.97;;;;;;;17.94;67.01;98138.03;5032509;28;20308;-69
2022/06/15 05:15:21;;;;;;;6.60;5.00;;;;;;;18.26;62.57;98137.84;5032624;28;20297;-68
2022/06/15 05:17:50;;;;;;;4.73;4.07;;;;;;;18.86;60.75;98136.06;5033352;28;20225;-69
2022/06/15 05:20:17;;;;;;;11.37;4.70;;;;;;;19.38;59.26;98130.38;5032830;28;20210;-69
2022/06/15 05:22:49;;;;;;;6.53;4.40;;;;;;;20.03;56.36;98132.84;5036296;28;20201;-69
2022/06/15 05:25:16;;;;;;;5.90;4.23;;;;;;;20.14;55.53;98131.75;5036235;28;20289;-69
2022/06/15 05:27:42;;;;;;;9.97;5.27;;;;;;;20.80;54.66;98137.53;5035668;28;20688;-69
2022/06/15 05:30:10;;;;;;;7.70;4.80;;;;;;;20.14;56.16;98137.16;5036369;28;20210;-69
2022/06/15 05:32:37;;;;;;;9.77;5.20;;;;;;;19.63;58.69;98134.91;5036283;28;20220;-68
2022/06/15 05:35:04;;;;;;;9.47;6.03;;;;;;;19.76;57.68;98131.63;5035645;28;20202;-69
2022/06/15 05:37:31;;;;;;;7.53;5.70;;;;;;;19.27;59.96;98126.91;5035673;28;20202;-69
2022/06/15 05:39:58;;;;;;;9.13;7.07;;;;;;;19.18;60.64;98130.41;5035221;28;20210;-69
2022/06/15 05:42:27;;;;;;;7.97;6.10;;;;;;;19.08;59.96;98133.91;5035941;28;20301;-69
2022/06/15 05:44:54;;;;;;;7.60;5.27;;;;;;;19.10;59.52;98131.72;5035574;28;20665;-68
2022/06/15 05:47:20;;;;;;;9.57;5.93;;;;;;;19.01;61.55;98127.97;5035637;28;20222;-68
2022/06/15 05:49:47;;;;;;;7.77;5.67;;;;;;;19.07;59.34;98126.91;5035109;28;20332;-68
2022/06/15 05:52:14;;;;;;;8.07;5.00;;;;;;;19.21;58.71;98127.97;5035415;28;20687;-68
2022/06/15 05:54:40;;;;;;;9.07;5.60;;;;;;;18.79;59.43;98119.38;5035490;28;20293;-68
2022/06/15 05:57:18;;;;;;;11.47;6.20;;;;;;;18.86;59.86;98122.59;5035490;28;20497;-69
2022/06/15 05:59:45;;;;;;;10.33;5.60;;;;;;;19.23;58.86;98117.75;5035196;28;20534;-69
2022/06/15 06:02:12;;;;;;;8.57;6.10;;;;;;;18.83;60.02;98125.03;5035618;28;20212;-68
2022/06/15 06:04:39;;;;;;;9.37;5.50;;;;;;;18.95;60.23;98120.97;5035308;28;20208;-69
2022/06/15 06:07:06;;;;;;;7.20;4.43;;;;;;;18.88;58.02;98117.78;5035400;28;20229;-68
2022/06/15 06:09:33;;;;;;;8.23;4.87;;;;;;;19.21;58.12;98127.16;5035186;28;20222;-69
2022/06/15 06:11:59;;;;;;;8.90;4.93;;;;;;;19.21;57.33;98121.75;5035264;28;20212;-69
2022/06/15 06:14:25;;;;;;;8.67;4.20;;;;;;;19.19;57.82;98119.31;5035199;28;20209;-68
2022/06/15 06:16:52;;;;;;;7.87;4.83;;;;;;;19.11;57.32;98119.91;5035469;28;20228;-69
2022/06/15 06:19:23;;;;;;;9.23;4.57;;;;;;;19.37;57.34;98121.47;5035287;28;20221;-69
2022/06/15 06:21:50;;;;;;;9.73;4.87;;;;;;;19.31;56.81;98124.47;5035313;28;20281;-68
2022/06/15 06:24:16;;;;;;;5.63;4.23;;;;;;;19.55;56.38;98120.91;5035295;28;20292;-68
2022/06/15 06:26:44;;;;;;;8.17;4.63;;;;;;;19.61;56.37;98121.69;5034836;28;20222;-69
2022/06/15 06:29:14;;;;;;;6.83;4.00;;;;;;;19.83;55.42;98129.44;5034580;28;20279;-70
2022/06/15 06:31:40;;;;;;;11.33;5.10;;;;;;;19.77;54.84;98129.44;5035022;28;20214;-70
2022/06/15 06:34:07;;;;;;;7.00;4.30;;;;;;;19.91;54.92;98123.47;5034730;28;20205;-70
2022/06/15 06:36:45;;;;;;;11.03;4.70;;;;;;;19.94;54.80;98122.94;5035038;28;20206;-69
2022/06/15 06:39:20;;;;;;;6.90;3.87;;;;;;;19.79;54.51;98129.19;5034581;28;20283;-70
2022/06/15 06:41:47;;;;;;;8.83;4.00;;;;;;;19.95;53.73;98129.94;5034736;28;20272;-70
2022/06/15 06:44:14;;;;;;;8.50;4.33;;;;;;;19.96;54.58;98123.44;5034935;28;20297;-70
2022/06/15 06:46:44;;;;;;;8.30;6.67;;;;;;;20.19;54.56;98133.63;5034700;28;20232;-70
2022/06/15 06:49:11;;;;;;;7.57;5.17;;;;;;;20.29;54.24;98130.84;5034409;28;20589;-70
2022/06/15 06:51:39;;;;;;;9.97;6.27;;;;;;;20.26;54.42;98134.13;5034849;28;20593;-70
2022/06/15 06:54:08;;;;;;;7.63;4.60;;;;;;;20.34;54.12;98130.84;5035459;28;20217;-70
2022/06/15 06:56:36;;;;;;;6.03;4.10;;;;;;;20.41;54.20;98131.31;5034733;28;20206;-70
2022/06/15 06:59:07;;;;;;;7.37;4.33;;;;;;;20.57;53.80;98122.06;5034582;28;20229;-70
2022/06/15 07:01:39;;;;;;;7.97;3.83;;;;;;;20.81;53.21;98121.06;5034449;28;20194;-70
2022/06/15 07:04:05;;;;;;;8.97;3.87;;;;;;;20.82;53.34;98119.13;5034930;28;20194;-70
2022/06/15 07:06:32;;;;;;;9.33;4.50;;;;;;;20.80;53.63;98121.34;5034723;28;20230;-70
2022/06/15 07:08:59;;;;;;;8.37;4.77;;;;;;;20.83;53.50;98118.88;5034399;28;20226;-70
2022/06/15 07:11:26;;;;;;;8.33;3.73;;;;;;;21.18;53.74;98125.88;5034514;28;20654;-70
2022/06/15 07:13:52;;;;;;;8.30;4.47;;;;;;;21.18;52.42;98129.41;5034403;28;20799;-70
2022/06/15 07:16:21;;;;;;;4.97;3.83;;;;;;;21.06;52.97;98125.44;5034468;28;20285;-70
2022/06/15 07:18:48;;;;;;;7.67;4.60;;;;;;;21.18;52.59;98125.88;5034027;28;20824;-70
2022/06/15 07:21:18;;;;;;;8.37;4.50;;;;;;;21.33;52.63;98125.72;5034136;28;20257;-71
2022/06/15 07:23:48;;;;;;;6.03;3.83;;;;;;;21.35;52.59;98132.47;5034981;28;20212;-71
2022/06/15 07:26:19;;;;;;;6.97;3.20;;;;;;;21.52;53.18;98129.34;5034167;28;20214;-70
2022/06/15 07:28:46;;;;;;;7.03;3.80;;;;;;;21.61;51.77;98130.31;5034142;28;20236;-70
2022/06/15 07:31:25;;;;;;;5.33;3.30;;;;;;;21.64;52.56;98129.72;5034250;28;20225;-71
2022/06/15 07:33:53;;;;;;;6.03;4.00;;;;;;;21.63;51.25;98133.53;5034253;28;20198;-70
2022/06/15 07:36:20;;;;;;;10.00;6.77;;;;;;;21.61;51.95;98124.91;5033905;28;20202;-70
2022/06/15 07:38:46;;;;;;;6.77;3.53;;;;;;;21.90;52.63;98128.38;5033660;28;20230;-70
2022/06/15 07:41:13;;;;;;;6.97;3.30;;;;;;;21.99;51.49;98132.06;5034177;28;20216;-71
2022/06/15 07:43:40;;;;;;;4.97;3.80;;;;;;;22.10;50.63;98128.94;5033913;28;20210;-70
2022/06/15 07:46:07;;;;;;;5.47;3.90;;;;;;;22.29;50.36;98132.44;5033778;28;20289;-70
2022/06/15 07:51:35;;;;;;;6.27;4.20;;;;;;;22.23;50.31;98127.38;5033968;28;20271;-71
2022/06/15 07:54:04;;;;;;;11.43;4.18;;;;;;;22.42;50.52;98125.50;5034025;28;20220;-71
2022/06/15 07:56:32;;;;;;;6.65;3.80;;;;;;;22.61;49.45;98129.84;5033732;28;20297;-71
2022/06/15 07:58:59;;;;;;;5.00;3.60;;;;;;;22.80;49.64;98124.41;5033270;28;20317;-72
2022/06/15 08:01:25;;;;;;;5.97;3.53;;;;;;;22.76;48.96;98124.22;5033734;28;20242;-70
2022/06/15 08:03:52;;;;;;;6.63;3.30;;;;;;;22.83;48.52;98129.25;5033760;28;20292;-71
2022/06/15 08:06:19;;;;;;;11.57;5.45;;;;;;;22.68;48.70;98138.44;5033597;28;20296;-70
2022/06/15 08:08:46;;;;;;;3.60;3.17;;;;;;;22.88;48.63;98131.88;5016231;28;20236;-71
2022/06/15 08:11:13;;;;;;;5.40;3.50;;;;;;;22.79;47.93;98131.72;5033571;28;20277;-71
2022/06/15 08:13:41;;;;;;;5.70;3.33;;;;;;;22.97;47.13;98130.09;5033544;28;20621;-71
2022/06/15 08:16:08;;;;;;;9.98;3.97;;;;;;;22.85;47.75;98132.47;5033437;28;20206;-71
2022/06/15 08:18:40;;;;;;;5.38;3.60;;;;;;;23.16;48.56;98136.28;5033390;28;20344;-71
2022/06/15 08:21:12;;;;;;;5.38;3.22;;;;;;;23.36;46.87;98139.47;5033356;28;20201;-71
2022/06/15 08:23:43;;;;;;;5.68;3.30;;;;;;;23.25;47.57;98129.09;5033028;28;20285;-71
2022/06/15 08:26:15;;;;;;;5.28;3.55;;;;;;;22.87;46.73;98131.06;5033155;28;20190;-70
2022/06/15 08:28:46;;;;;;;6.65;3.45;;;;;;;23.29;47.22;98133.63;5033029;28;20232;-72
2022/06/15 08:31:13;;;;;;;3.80;3.20;;;;;;;23.63;46.07;98130.56;5033496;28;20197;-71
2022/06/15 08:33:40;;;;;;;4.45;3.63;;;;;;;23.54;45.45;98135.88;5033241;28;20240;-71
2022/06/15 08:36:09;;;;;;;6.03;3.83;;;;;;;23.45;46.23;98134.16;5033245;28;20296;-71
2022/06/15 08:38:36;;;;;;;6.30;3.90;;;;;;;23.02;45.56;98136.22;5032861;28;20704;-70
2022/06/15 08:41:11;;;;;;;4.78;3.03;;;;;;;23.51;45.67;98130.25;5033109;28;20208;-70
2022/06/15 08:43:55;;;;;;;5.53;3.38;;;;;;;23.63;45.48;98131.38;5033055;28;20277;-70
2022/06/15 08:46:45;;;;;;;12.05;3.72;;;;;;;23.71;44.78;98127.97;5032988;28;20217;-71
2022/06/15 08:49:25;;;;;;;6.85;2.92;;;;;;;24.00;44.52;98133.09;5032601;28;20716;-71
2022/06/15 08:51:58;;;;;;;4.50;3.10;;;;;;;24.17;44.16;98134.09;5016385;28;20285;-71
2022/06/15 08:54:36;;;;;;;6.57;3.10;;;;;;;24.24;44.42;98126.31;5015575;28;20190;-71
2022/06/15 08:57:32;;;;;;;13.40;3.95;;;;;;;24.38;43.50;98131.75;5036173;28;20724;-70
2022/06/15 09:00:07;;;;;;;7.07;3.47;;;;;;;24.27;43.87;98131.16;5019119;28;20649;-70
2022/06/15 09:02:36;;;;;;;5.22;3.95;;;;;;;24.21;43.80;98137.00;5037520;28;20197;-71
2022/06/15 09:05:39;;;;;;;5.35;3.25;;;;;;;24.51;42.70;98136.34;5036775;28;20296;-71
2022/06/15 09:08:32;;;;;;;12.77;8.23;;;;;;;24.44;44.88;98127.81;5021353;28;20317;-71
2022/06/15 09:11:19;;;;;;;7.03;4.82;;;;;;;24.67;44.11;98135.72;5036803;28;20281;-70
2022/06/15 09:14:02;;;;;;;9.60;6.88;;;;;;;24.81;42.09;98135.66;5020347;28;20198;-70
2022/06/15 09:16:40;;;;;;;7.90;5.05;;;;;;;24.74;44.84;98129.84;5036844;28;20277;-71
2022/06/15 09:19:12;;;;;;;51.20;45.45;;;;;;;24.58;42.55;98134.00;5036470;28;20724;-70
2022/06/15 09:21:44;;;;;;;79.78;71.53;;;;;;;24.72;43.72;98142.94;5002840;28;20228;-71
2022/06/15 09:24:16;;;;;;;18.75;16.80;;;;;;;25.12;42.13;98140.06;5019094;28;20335;-71
2022/06/15 09:26:53;;;;;;;4.18;3.20;;;;;;;25.32;41.27;98131.41;5036060;28;20642;-70
2022/06/15 09:29:25;;;;;;;6.85;2.80;;;;;;;25.48;41.44;98137.25;5036094;28;20229;-71
2022/06/15 09:32:04;;;;;;;10.82;6.70;;;;;;;25.07;41.63;98134.75;5036384;28;20194;-71
2022/06/15 09:34:41;;;;;;;8.40;5.93;;;;;;;25.68;41.54;98134.78;5036106;28;20194;-71
2022/06/15 09:37:23;;;;;;;23.10;20.17;;;;;;;25.58;41.29;98134.25;5036361;28;20267;-71
2022/06/15 09:39:50;;;;;;;7.22;3.65;;;;;;;26.07;41.02;98129.34;5036471;28;20364;-71
2022/06/15 09:42:19;;;;;;;6.03;3.38;;;;;;;26.18;39.62;98138.00;5035826;28;20213;-71
2022/06/15 09:45:29;;;;;;;3.72;3.15;;;;;;;26.42;39.12;98133.72;5018386;28;20206;-71
2022/06/15 09:48:23;;;;;;;5.72;3.67;;;;;;;26.42;38.86;98133.72;5034534;28;20229;-71
2022/06/15 09:51:02;;;;;;;10.88;8.65;;;;;;;25.89;39.29;98135.84;5036122;28;20281;-71
2022/06/15 09:53:51;;;;;;;15.98;13.77;;;;;;;26.08;39.85;98124.69;5002978;28;20273;-72
2022/06/15 09:56:21;;;;;;;5.00;3.33;;;;;;;26.48;38.70;98123.47;5036003;28;20282;-71
2022/06/15 09:58:54;;;;;;;8.93;4.30;;;;;;;26.74;38.36;98127.06;5035420;28;20232;-71
2022/06/15 10:01:23;;;;;;;56.47;50.55;;;;;;;26.53;39.06;98123.31;5035524;28;20190;-71
2022/06/15 10:03:53;;;;;;;8.13;3.60;;;;;;;26.89;38.54;98118.38;5018194;28;20300;-70
2022/06/15 10:06:29;;;;;;;5.40;2.95;;;;;;;27.10;37.80;98122.03;5017017;28;20220;-70
2022/06/15 10:08:58;;;;;;;15.75;13.93;;;;;;;26.64;37.67;98132.84;5035504;28;20242;-70
2022/06/15 10:11:37;;;;;;;5.68;4.38;;;;;;;26.46;38.68;98123.78;5035248;28;20292;-70
2022/06/15 10:14:27;;;;;;;3.38;2.88;;;;;;;27.15;38.73;98119.16;5035850;28;20194;-70
2022/06/15 10:17:03;;;;;;;5.95;3.33;;;;;;;27.47;36.12;98126.00;5035867;28;20625;-69
2022/06/15 10:19:33;;;;;;;4.90;3.97;;;;;;;26.96;35.13;98124.94;5035796;28;20336;-70
2022/06/15 10:22:05;;;;;;;4.38;3.20;;;;;;;26.69;34.70;98127.22;5017901;28;20237;-70
2022/06/15 10:24:36;;;;;;;9.38;7.03;;;;;;;26.10;36.16;98127.91;5035223;28;20225;-70
2022/06/15 10:27:22;;;;;;;6.55;5.88;;;;;;;26.31;36.43;98126.19;5035386;28;20306;-70
2022/06/15 10:29:57;;;;;;;5.43;3.03;;;;;;;27.14;36.75;98117.53;5035417;28;20229;-70
2022/06/15 10:32:24;;;;;;;3.97;3.03;;;;;;;26.91;37.22;98119.66;5034816;28;20392;-70
2022/06/15 10:34:55;;;;;;;6.53;3.25;;;;;;;26.89;36.73;98112.91;5035263;28;20212;-70
2022/06/15 10:37:32;;;;;;;4.78;3.00;;;;;;;27.40;36.87;98117.50;5034860;28;20182;-70
2022/06/15 10:40:07;;;;;;;6.13;3.40;;;;;;;27.21;37.25;98112.41;5034318;28;20286;-70
2022/06/15 10:42:42;;;;;;;6.45;3.25;;;;;;;27.39;36.43;98107.72;5034699;28;20632;-70
2022/06/15 10:45:21;;;;;;;4.43;3.60;;;;;;;27.38;35.98;98114.28;5035655;28;20209;-71
2022/06/15 10:47:51;;;;;;;5.35;3.92;;;;;;;26.94;35.86;98115.47;5034917;28;20234;-70
2022/06/15 10:50:32;;;;;;;5.95;3.33;;;;;;;26.39;35.97;98115.31;5034609;28;20220;-70
2022/06/15 10:53:03;;;;;;;7.85;3.70;;;;;;;26.61;36.03;98104.28;5034979;28;20194;-70
2022/06/15 11:04:15;;;;;;;5.00;3.28;;;;;;;27.17;35.48;98099.72;5034507;28;20178;-70
2022/06/15 11:06:50;;;;;;;4.47;2.90;;;;;;;27.65;34.14;98100.22;5034040;28;20191;-71
2022/06/15 11:09:41;;;;;;;4.57;2.78;;;;;;;27.89;34.66;98095.78;5034090;28;20237;-71
2022/06/15 11:12:42;;;;;;;4.60;2.60;;;;;;;27.94;33.63;98092.88;5012317;28;20297;-71
2022/06/15 11:15:15;;;;;;;9.90;4.82;;;;;;;27.54;34.31;98094.31;5016666;28;20296;-72
2022/06/15 11:18:06;;;;;;;3.13;2.83;;;;;;;27.75;33.58;98091.69;5034407;28;20202;-71
2022/06/15 11:20:44;;;;;;;6.28;3.35;;;;;;;27.61;33.54;98096.53;5033962;28;20291;-71
2022/06/15 11:23:41;;;;;;;4.35;2.67;;;;;;;27.68;33.97;98085.91;5034864;28;20276;-70
2022/06/15 11:29:14;;;;;;;13.63;12.30;;;;;;;27.89;34.37;98081.34;5034051;28;20344;-72
2022/06/15 11:31:42;;;;;;;4.65;2.65;;;;;;;28.19;32.76;98078.25;5033755;28;20629;-71
2022/06/15 11:34:19;;;;;;;6.53;5.93;;;;;;;27.34;33.34;98078.66;5034027;28;20202;-71
2022/06/15 11:36:56;;;;;;;3.35;2.97;;;;;;;27.79;33.82;98077.03;5033983;28;20189;-70
2022/06/15 11:39:40;;;;;;;4.78;2.58;;;;;;;27.72;32.24;98084.13;5033907;28;20226;-71
2022/06/15 11:42:11;;;;;;;7.13;5.72;;;;;;;27.35;31.85;98084.94;5033668;28;20304;-71
2022/06/15 11:44:41;;;;;;;6.55;2.38;;;;;;;27.54;33.50;98082.59;5033685;28;20222;-71
2022/06/15 11:47:22;;;;;;;10.52;7.63;;;;;;;27.66;33.12;98086.22;5033572;28;20564;-70
2022/06/15 11:50:07;;;;;;;3.85;2.20;;;;;;;27.94;32.20;98079.22;5033351;28;20611;-71
2022/06/15 11:52:45;;;;;;;2.35;2.15;;;;;;;28.19;32.16;98086.47;5033253;28;20280;-71
2022/06/15 11:55:28;;;;;;;5.43;4.05;;;;;;;28.03;32.72;98081.91;5033684;28;20201;-70
2022/06/15 11:58:20;;;;;;;4.63;2.20;;;;;;;28.21;32.09;98073.25;5033571;28;20308;-71
2022/06/15 12:00:53;;;;;;;7.82;5.78;;;;;;;28.21;31.28;98072.47;5034132;28;20190;-70
2022/06/15 12:03:31;;;;;;;3.63;2.72;;;;;;;28.19;31.06;98075.53;5015879;28;20202;-71
2022/06/15 12:06:11;;;;;;;4.75;2.25;;;;;;;28.19;31.13;98078.25;5033453;28;20292;-71
2022/06/15 12:08:52;;;;;;;4.13;3.55;;;;;;;28.03;31.47;98081.91;5032869;28;20225;-71
2022/06/15 12:14:20;;;;;;;3.55;2.60;;;;;;;28.02;30.91;98072.09;5033310;28;20520;-70